sensor_id;sensor_type;location;lat;lon;timestamp;P1;durP1;ratioP1;P2;durP2;ratioP2
34064;SDS011;20339;49.754;20.158;2022-11-20T00:01:21;32.10;;;18.90;;
34064;SDS011;20339;49.754;20.158;2022-11-20T00:03:57;28.70;;;17.70;;
34064;SDS011;20339;49.754;20.158;2022-11-20T00:06:29;27.80;;;17.50;;
34064;SDS011;20339;49.754;20.158;2022-11-20T00:09:00;26.90;;;15.20;;
34064;SDS011;20339;49.754;20.158;2022-11-20T00:11:33;28.20;;;17.70;;
34064;SDS011;20339;49.754;20.158;2022-11-20T00:14:04;28.90;;;17.60;;
34064;SDS011;20339;49.754;20.158;2022-11-20T00:16:36;27.30;;;16.40;;
34064;SDS011;20339;49.754;20.158;2022-11-20T00:19:07;27.30;;;15.40;;
34064;SDS011;20339;49.754;20.158;2022-11-20T00:21:39;26.60;;;17.50;;
34064;SDS011;20339;49.754;20.158;2022-11-20T00:24:10;27.00;;;17.60;;
34064;SDS011;20339;49.754;20.158;2022-11-20T00:26:41;25.30;;;15.50;;
34064;SDS011;20339;49.754;20.158;2022-11-20T00:29:15;24.20;;;15.00;;
34064;SDS011;20339;49.754;20.158;2022-11-20T00:31:46;23.80;;;15.40;;
34064;SDS011;20339;49.754;20.158;2022-11-20T00:34:20;27.80;;;17.90;;
34064;SDS011;20339;49.754;20.158;2022-11-20T00:36:52;28.10;;;17.50;;
34064;SDS011;20339;49.754;20.158;2022-11-20T00:39:26;29.20;;;17.30;;
34064;SDS011;20339;49.754;20.158;2022-11-20T00:41:57;29.20;;;16.90;;
34064;SDS011;20339;49.754;20.158;2022-11-20T00:44:31;31.20;;;19.50;;
34064;SDS011;20339;49.754;20.158;2022-11-20T00:47:02;33.40;;;20.60;;
34064;SDS011;20339;49.754;20.158;2022-11-20T00:49:33;36.30;;;21.00;;
34064;SDS011;20339;49.754;20.158;2022-11-20T00:52:05;31.30;;;20.40;;
34064;SDS011;20339;49.754;20.158;2022-11-20T00:54:38;32.70;;;19.30;;
34064;SDS011;20339;49.754;20.158;2022-11-20T00:57:09;34.40;;;20.50;;
34064;SDS011;20339;49.754;20.158;2022-11-20T00:59:43;36.50;;;20.80;;
34064;SDS011;20339;49.754;20.158;2022-11-20T01:02:14;34.60;;;22.40;;
34064;SDS011;20339;49.754;20.158;2022-11-20T01:04:46;36.40;;;21.30;;
34064;SDS011;20339;49.754;20.158;2022-11-20T01:07:17;36.50;;;22.50;;
34064;SDS011;20339;49.754;20.158;2022-11-20T01:09:51;35.80;;;22.60;;
34064;SDS011;20339;49.754;20.158;2022-11-20T01:12:22;38.90;;;24.30;;
34064;SDS011;20339;49.754;20.158;2022-11-20T01:14:53;30.10;;;19.50;;
34064;SDS011;20339;49.754;20.158;2022-11-20T01:17:24;34.60;;;20.90;;
34064;SDS011;20339;49.754;20.158;2022-11-20T01:19:56;37.20;;;21.90;;
34064;SDS011;20339;49.754;20.158;2022-11-20T01:22:27;35.30;;;22.60;;
34064;SDS011;20339;49.754;20.158;2022-11-20T01:24:58;35.30;;;21.90;;
34064;SDS011;20339;49.754;20.158;2022-11-20T01:27:30;33.70;;;21.10;;
34064;SDS011;20339;49.754;20.158;2022-11-20T01:30:04;37.40;;;22.70;;
34064;SDS011;20339;49.754;20.158;2022-11-20T01:32:36;37.60;;;22.30;;
34064;SDS011;20339;49.754;20.158;2022-11-20T01:35:08;34.80;;;21.10;;
34064;SDS011;20339;49.754;20.158;2022-11-20T01:37:39;36.90;;;21.70;;
34064;SDS011;20339;49.754;20.158;2022-11-20T01:40:11;38.60;;;23.40;;
34064;SDS011;20339;49.754;20.158;2022-11-20T01:42:46;35.30;;;21.80;;
34064;SDS011;20339;49.754;20.158;2022-11-20T01:45:57;53.80;;;29.00;;
34064;SDS011;20339;49.754;20.158;2022-11-20T01:48:32;40.90;;;24.20;;
34064;SDS011;20339;49.754;20.158;2022-11-20T01:51:10;44.60;;;24.70;;
34064;SDS011;20339;49.754;20.158;2022-11-20T01:53:50;38.90;;;22.70;;
34064;SDS011;20339;49.754;20.158;2022-11-20T01:56:26;36.50;;;22.40;;
34064;SDS011;20339;49.754;20.158;2022-11-20T01:59:00;34.90;;;21.70;;
34064;SDS011;20339;49.754;20.158;2022-11-20T02:01:33;34.90;;;21.30;;
34064;SDS011;20339;49.754;20.158;2022-11-20T02:04:05;33.30;;;20.90;;
34064;SDS011;20339;49.754;20.158;2022-11-20T02:06:41;31.90;;;21.10;;
34064;SDS011;20339;49.754;20.158;2022-11-20T02:09:15;36.30;;;23.10;;
34064;SDS011;20339;49.754;20.158;2022-11-20T02:11:46;28.50;;;18.50;;
34064;SDS011;20339;49.754;20.158;2022-11-20T02:14:18;32.60;;;20.90;;
34064;SDS011;20339;49.754;20.158;2022-11-20T02:16:54;32.80;;;20.50;;
34064;SDS011;20339;49.754;20.158;2022-11-20T02:19:27;32.40;;;19.50;;
34064;SDS011;20339;49.754;20.158;2022-11-20T02:22:02;31.20;;;20.70;;
34064;SDS011;20339;49.754;20.158;2022-11-20T02:24:40;34.40;;;20.10;;
34064;SDS011;20339;49.754;20.158;2022-11-20T02:27:13;32.70;;;19.60;;
34064;SDS011;20339;49.754;20.158;2022-11-20T02:29:46;31.60;;;19.40;;
34064;SDS011;20339;49.754;20.158;2022-11-20T02:32:23;30.00;;;19.30;;
34064;SDS011;20339;49.754;20.158;2022-11-20T02:34:55;34.10;;;20.70;;
34064;SDS011;20339;49.754;20.158;2022-11-20T02:37:28;36.20;;;21.70;;
34064;SDS011;20339;49.754;20.158;2022-11-20T02:40:04;34.90;;;21.90;;
34064;SDS011;20339;49.754;20.158;2022-11-20T02:42:36;34.60;;;21.50;;
34064;SDS011;20339;49.754;20.158;2022-11-20T02:45:08;37.80;;;22.40;;
34064;SDS011;20339;49.754;20.158;2022-11-20T02:47:40;29.90;;;19.30;;
34064;SDS011;20339;49.754;20.158;2022-11-20T02:50:13;34.80;;;22.70;;
34064;SDS011;20339;49.754;20.158;2022-11-20T02:52:45;39.20;;;23.20;;
34064;SDS011;20339;49.754;20.158;2022-11-20T02:55:16;29.10;;;18.50;;
34064;SDS011;20339;49.754;20.158;2022-11-20T02:57:47;31.70;;;19.90;;
34064;SDS011;20339;49.754;20.158;2022-11-20T03:00:18;32.90;;;19.80;;
34064;SDS011;20339;49.754;20.158;2022-11-20T03:02:50;34.20;;;21.20;;
34064;SDS011;20339;49.754;20.158;2022-11-20T03:05:21;30.60;;;19.30;;
34064;SDS011;20339;49.754;20.158;2022-11-20T03:07:52;34.00;;;20.00;;
34064;SDS011;20339;49.754;20.158;2022-11-20T03:10:23;28.10;;;18.50;;
34064;SDS011;20339;49.754;20.158;2022-11-20T03:12:55;29.70;;;18.50;;
34064;SDS011;20339;49.754;20.158;2022-11-20T03:15:26;29.40;;;19.30;;
34064;SDS011;20339;49.754;20.158;2022-11-20T03:18:00;29.20;;;18.70;;
34064;SDS011;20339;49.754;20.158;2022-11-20T03:20:31;28.70;;;18.80;;
34064;SDS011;20339;49.754;20.158;2022-11-20T03:23:03;28.70;;;17.50;;
34064;SDS011;20339;49.754;20.158;2022-11-20T03:25:34;27.60;;;17.20;;
34064;SDS011;20339;49.754;20.158;2022-11-20T03:28:06;29.50;;;18.60;;
34064;SDS011;20339;49.754;20.158;2022-11-20T03:30:37;29.90;;;16.70;;
34064;SDS011;20339;49.754;20.158;2022-11-20T03:33:08;27.30;;;16.40;;
34064;SDS011;20339;49.754;20.158;2022-11-20T03:35:39;25.60;;;15.50;;
34064;SDS011;20339;49.754;20.158;2022-11-20T03:38:10;25.40;;;16.10;;
34064;SDS011;20339;49.754;20.158;2022-11-20T03:40:41;27.00;;;17.60;;
34064;SDS011;20339;49.754;20.158;2022-11-20T03:43:12;26.80;;;16.60;;
34064;SDS011;20339;49.754;20.158;2022-11-20T03:45:44;25.30;;;16.00;;
34064;SDS011;20339;49.754;20.158;2022-11-20T03:48:15;25.30;;;15.80;;
34064;SDS011;20339;49.754;20.158;2022-11-20T03:50:46;24.90;;;16.00;;
34064;SDS011;20339;49.754;20.158;2022-11-20T03:53:17;24.70;;;16.40;;
34064;SDS011;20339;49.754;20.158;2022-11-20T03:55:51;26.90;;;16.20;;
34064;SDS011;20339;49.754;20.158;2022-11-20T03:58:22;28.00;;;17.60;;
34064;SDS011;20339;49.754;20.158;2022-11-20T04:00:54;23.90;;;15.30;;
34064;SDS011;20339;49.754;20.158;2022-11-20T04:03:27;24.60;;;15.70;;
34064;SDS011;20339;49.754;20.158;2022-11-20T04:06:02;27.40;;;15.90;;
34064;SDS011;20339;49.754;20.158;2022-11-20T04:08:35;24.40;;;14.10;;
34064;SDS011;20339;49.754;20.158;2022-11-20T04:11:12;23.40;;;15.30;;
34064;SDS011;20339;49.754;20.158;2022-11-20T04:13:45;24.60;;;14.60;;
34064;SDS011;20339;49.754;20.158;2022-11-20T04:16:18;21.30;;;12.80;;
34064;SDS011;20339;49.754;20.158;2022-11-20T04:18:52;25.20;;;14.80;;
34064;SDS011;20339;49.754;20.158;2022-11-20T04:21:25;27.20;;;16.40;;
34064;SDS011;20339;49.754;20.158;2022-11-20T04:23:57;25.60;;;15.90;;
34064;SDS011;20339;49.754;20.158;2022-11-20T04:26:28;25.40;;;15.40;;
34064;SDS011;20339;49.754;20.158;2022-11-20T04:29:02;27.30;;;16.80;;
34064;SDS011;20339;49.754;20.158;2022-11-20T04:31:34;27.70;;;16.00;;
34064;SDS011;20339;49.754;20.158;2022-11-20T04:34:06;29.70;;;17.20;;
34064;SDS011;20339;49.754;20.158;2022-11-20T04:36:40;25.10;;;15.50;;
34064;SDS011;20339;49.754;20.158;2022-11-20T04:39:14;24.20;;;15.00;;
34064;SDS011;20339;49.754;20.158;2022-11-20T04:41:48;25.60;;;15.50;;
34064;SDS011;20339;49.754;20.158;2022-11-20T04:44:40;23.40;;;14.40;;
34064;SDS011;20339;49.754;20.158;2022-11-20T04:47:11;22.90;;;12.70;;
34064;SDS011;20339;49.754;20.158;2022-11-20T04:49:42;21.00;;;12.70;;
34064;SDS011;20339;49.754;20.158;2022-11-20T04:52:13;20.70;;;12.80;;
34064;SDS011;20339;49.754;20.158;2022-11-20T04:54:47;23.00;;;13.80;;
34064;SDS011;20339;49.754;20.158;2022-11-20T04:57:20;23.40;;;14.90;;
34064;SDS011;20339;49.754;20.158;2022-11-20T04:59:51;24.50;;;14.80;;
34064;SDS011;20339;49.754;20.158;2022-11-20T05:02:23;28.30;;;15.50;;
34064;SDS011;20339;49.754;20.158;2022-11-20T05:04:54;27.30;;;17.00;;
34064;SDS011;20339;49.754;20.158;2022-11-20T05:07:27;26.70;;;16.00;;
34064;SDS011;20339;49.754;20.158;2022-11-20T05:09:58;28.30;;;17.00;;
34064;SDS011;20339;49.754;20.158;2022-11-20T05:12:30;26.80;;;18.10;;
34064;SDS011;20339;49.754;20.158;2022-11-20T05:15:02;28.40;;;19.00;;
34064;SDS011;20339;49.754;20.158;2022-11-20T05:17:34;28.30;;;17.80;;
34064;SDS011;20339;49.754;20.158;2022-11-20T05:20:06;30.20;;;17.50;;
34064;SDS011;20339;49.754;20.158;2022-11-20T05:22:39;25.20;;;16.90;;
34064;SDS011;20339;49.754;20.158;2022-11-20T05:25:10;26.10;;;15.30;;
34064;SDS011;20339;49.754;20.158;2022-11-20T05:27:42;26.00;;;15.20;;
34064;SDS011;20339;49.754;20.158;2022-11-20T05:30:14;22.90;;;14.00;;
34064;SDS011;20339;49.754;20.158;2022-11-20T05:32:45;22.90;;;14.20;;
34064;SDS011;20339;49.754;20.158;2022-11-20T05:35:17;22.70;;;14.80;;
34064;SDS011;20339;49.754;20.158;2022-11-20T05:37:48;25.80;;;15.90;;
34064;SDS011;20339;49.754;20.158;2022-11-20T05:40:19;27.10;;;16.50;;
34064;SDS011;20339;49.754;20.158;2022-11-20T05:42:51;29.20;;;17.40;;
34064;SDS011;20339;49.754;20.158;2022-11-20T05:45:22;22.10;;;15.70;;
34064;SDS011;20339;49.754;20.158;2022-11-20T05:47:53;22.50;;;15.20;;
34064;SDS011;20339;49.754;20.158;2022-11-20T05:50:26;21.90;;;13.70;;
34064;SDS011;20339;49.754;20.158;2022-11-20T05:52:59;20.20;;;12.40;;
34064;SDS011;20339;49.754;20.158;2022-11-20T05:55:30;19.60;;;12.10;;
34064;SDS011;20339;49.754;20.158;2022-11-20T05:58:01;20.40;;;12.30;;
34064;SDS011;20339;49.754;20.158;2022-11-20T06:00:33;26.80;;;15.70;;
34064;SDS011;20339;49.754;20.158;2022-11-20T06:03:05;27.50;;;16.80;;
34064;SDS011;20339;49.754;20.158;2022-11-20T06:05:37;27.50;;;14.90;;
34064;SDS011;20339;49.754;20.158;2022-11-20T06:08:08;29.30;;;16.50;;
34064;SDS011;20339;49.754;20.158;2022-11-20T06:10:39;27.10;;;15.30;;
34064;SDS011;20339;49.754;20.158;2022-11-20T06:13:13;21.50;;;13.10;;
34064;SDS011;20339;49.754;20.158;2022-11-20T06:15:51;24.40;;;13.60;;
34064;SDS011;20339;49.754;20.158;2022-11-20T06:18:23;23.90;;;14.50;;
34064;SDS011;20339;49.754;20.158;2022-11-20T06:21:00;23.80;;;13.80;;
34064;SDS011;20339;49.754;20.158;2022-11-20T06:23:34;23.20;;;13.60;;
34064;SDS011;20339;49.754;20.158;2022-11-20T06:26:06;29.60;;;17.90;;
34064;SDS011;20339;49.754;20.158;2022-11-20T06:28:39;33.10;;;18.70;;
34064;SDS011;20339;49.754;20.158;2022-11-20T06:31:11;33.00;;;19.70;;
34064;SDS011;20339;49.754;20.158;2022-11-20T06:33:44;29.50;;;17.30;;
34064;SDS011;20339;49.754;20.158;2022-11-20T06:36:16;27.80;;;17.40;;
34064;SDS011;20339;49.754;20.158;2022-11-20T06:38:49;29.50;;;18.70;;
34064;SDS011;20339;49.754;20.158;2022-11-20T06:41:21;26.20;;;15.90;;
34064;SDS011;20339;49.754;20.158;2022-11-20T06:43:53;26.10;;;16.50;;
34064;SDS011;20339;49.754;20.158;2022-11-20T06:46:24;26.80;;;17.30;;
34064;SDS011;20339;49.754;20.158;2022-11-20T06:48:56;28.20;;;17.60;;
34064;SDS011;20339;49.754;20.158;2022-11-20T06:51:27;25.80;;;16.20;;
34064;SDS011;20339;49.754;20.158;2022-11-20T06:53:59;31.30;;;22.30;;
34064;SDS011;20339;49.754;20.158;2022-11-20T06:56:30;31.40;;;21.00;;
34064;SDS011;20339;49.754;20.158;2022-11-20T06:59:05;30.70;;;17.90;;
34064;SDS011;20339;49.754;20.158;2022-11-20T07:01:36;37.10;;;21.50;;
34064;SDS011;20339;49.754;20.158;2022-11-20T07:04:08;52.50;;;28.90;;
34064;SDS011;20339;49.754;20.158;2022-11-20T07:06:40;50.20;;;28.70;;
34064;SDS011;20339;49.754;20.158;2022-11-20T07:09:11;44.90;;;28.20;;
34064;SDS011;20339;49.754;20.158;2022-11-20T07:11:43;46.70;;;27.60;;
34064;SDS011;20339;49.754;20.158;2022-11-20T07:14:14;53.30;;;32.20;;
34064;SDS011;20339;49.754;20.158;2022-11-20T07:16:46;42.80;;;26.80;;
34064;SDS011;20339;49.754;20.158;2022-11-20T07:19:18;42.40;;;27.00;;
34064;SDS011;20339;49.754;20.158;2022-11-20T07:21:50;48.50;;;31.30;;
34064;SDS011;20339;49.754;20.158;2022-11-20T07:24:22;47.80;;;30.00;;
34064;SDS011;20339;49.754;20.158;2022-11-20T07:26:54;50.00;;;31.10;;
34064;SDS011;20339;49.754;20.158;2022-11-20T07:29:26;47.90;;;31.00;;
34064;SDS011;20339;49.754;20.158;2022-11-20T07:31:57;44.70;;;29.50;;
34064;SDS011;20339;49.754;20.158;2022-11-20T07:34:32;43.20;;;26.70;;
34064;SDS011;20339;49.754;20.158;2022-11-20T07:37:06;37.80;;;24.00;;
34064;SDS011;20339;49.754;20.158;2022-11-20T07:39:37;34.20;;;22.40;;
34064;SDS011;20339;49.754;20.158;2022-11-20T07:42:10;32.50;;;21.30;;
34064;SDS011;20339;49.754;20.158;2022-11-20T07:44:41;34.50;;;21.80;;
34064;SDS011;20339;49.754;20.158;2022-11-20T07:47:13;32.30;;;20.60;;
34064;SDS011;20339;49.754;20.158;2022-11-20T07:49:46;33.50;;;21.70;;
34064;SDS011;20339;49.754;20.158;2022-11-20T07:52:20;31.20;;;19.90;;
34064;SDS011;20339;49.754;20.158;2022-11-20T07:54:53;34.10;;;21.40;;
34064;SDS011;20339;49.754;20.158;2022-11-20T07:57:25;34.90;;;22.50;;
34064;SDS011;20339;49.754;20.158;2022-11-20T07:59:57;34.70;;;21.20;;
34064;SDS011;20339;49.754;20.158;2022-11-20T08:02:28;35.40;;;24.30;;
34064;SDS011;20339;49.754;20.158;2022-11-20T08:05:00;36.10;;;23.80;;
34064;SDS011;20339;49.754;20.158;2022-11-20T08:07:34;34.30;;;22.80;;
34064;SDS011;20339;49.754;20.158;2022-11-20T08:10:10;31.20;;;20.50;;
34064;SDS011;20339;49.754;20.158;2022-11-20T08:12:47;34.40;;;22.20;;
34064;SDS011;20339;49.754;20.158;2022-11-20T08:15:38;31.90;;;21.40;;
34064;SDS011;20339;49.754;20.158;2022-11-20T08:18:10;32.40;;;21.90;;
34064;SDS011;20339;49.754;20.158;2022-11-20T08:20:42;44.40;;;28.50;;
34064;SDS011;20339;49.754;20.158;2022-11-20T08:23:15;52.20;;;32.00;;
34064;SDS011;20339;49.754;20.158;2022-11-20T08:25:50;51.30;;;31.80;;
34064;SDS011;20339;49.754;20.158;2022-11-20T08:28:24;58.30;;;36.30;;
34064;SDS011;20339;49.754;20.158;2022-11-20T08:30:59;56.70;;;36.30;;
34064;SDS011;20339;49.754;20.158;2022-11-20T08:33:32;58.00;;;35.80;;
34064;SDS011;20339;49.754;20.158;2022-11-20T08:36:05;55.00;;;33.60;;
34064;SDS011;20339;49.754;20.158;2022-11-20T08:38:38;49.40;;;32.00;;
34064;SDS011;20339;49.754;20.158;2022-11-20T08:41:09;49.30;;;31.70;;
34064;SDS011;20339;49.754;20.158;2022-11-20T08:43:54;44.10;;;28.80;;
34064;SDS011;20339;49.754;20.158;2022-11-20T08:46:32;45.70;;;30.50;;
34064;SDS011;20339;49.754;20.158;2022-11-20T08:49:05;51.60;;;31.70;;
34064;SDS011;20339;49.754;20.158;2022-11-20T08:51:39;51.90;;;33.70;;
34064;SDS011;20339;49.754;20.158;2022-11-20T08:54:12;51.90;;;36.20;;
34064;SDS011;20339;49.754;20.158;2022-11-20T08:56:45;52.20;;;35.20;;
34064;SDS011;20339;49.754;20.158;2022-11-20T08:59:17;48.70;;;32.80;;
34064;SDS011;20339;49.754;20.158;2022-11-20T09:01:48;46.70;;;31.30;;
34064;SDS011;20339;49.754;20.158;2022-11-20T09:04:20;41.10;;;27.40;;
34064;SDS011;20339;49.754;20.158;2022-11-20T09:06:54;38.00;;;27.10;;
34064;SDS011;20339;49.754;20.158;2022-11-20T09:09:26;40.40;;;26.30;;
34064;SDS011;20339;49.754;20.158;2022-11-20T09:11:57;45.00;;;29.10;;
34064;SDS011;20339;49.754;20.158;2022-11-20T09:14:28;41.20;;;26.90;;
34064;SDS011;20339;49.754;20.158;2022-11-20T09:17:00;38.60;;;25.30;;
34064;SDS011;20339;49.754;20.158;2022-11-20T09:19:35;38.00;;;26.70;;
34064;SDS011;20339;49.754;20.158;2022-11-20T09:22:07;41.00;;;27.00;;
34064;SDS011;20339;49.754;20.158;2022-11-20T09:24:38;44.70;;;28.30;;
34064;SDS011;20339;49.754;20.158;2022-11-20T09:27:10;42.50;;;28.20;;
34064;SDS011;20339;49.754;20.158;2022-11-20T09:29:44;41.30;;;28.10;;
34064;SDS011;20339;49.754;20.158;2022-11-20T09:32:16;41.80;;;28.60;;
34064;SDS011;20339;49.754;20.158;2022-11-20T09:34:47;42.60;;;27.60;;
34064;SDS011;20339;49.754;20.158;2022-11-20T09:37:18;38.60;;;26.10;;
34064;SDS011;20339;49.754;20.158;2022-11-20T09:39:50;40.70;;;26.60;;
34064;SDS011;20339;49.754;20.158;2022-11-20T09:42:25;38.60;;;24.80;;
34064;SDS011;20339;49.754;20.158;2022-11-20T09:45:16;38.50;;;25.10;;
34064;SDS011;20339;49.754;20.158;2022-11-20T09:47:57;39.30;;;25.60;;
34064;SDS011;20339;49.754;20.158;2022-11-20T09:50:42;38.50;;;25.20;;
34064;SDS011;20339;49.754;20.158;2022-11-20T09:53:19;37.30;;;24.00;;
34064;SDS011;20339;49.754;20.158;2022-11-20T09:56:00;36.00;;;24.10;;
34064;SDS011;20339;49.754;20.158;2022-11-20T09:58:33;35.20;;;23.70;;
34064;SDS011;20339;49.754;20.158;2022-11-20T10:01:11;46.20;;;29.40;;
34064;SDS011;20339;49.754;20.158;2022-11-20T10:03:48;48.20;;;31.20;;
34064;SDS011;20339;49.754;20.158;2022-11-20T10:06:27;49.30;;;32.20;;
34064;SDS011;20339;49.754;20.158;2022-11-20T10:09:03;43.40;;;29.00;;
34064;SDS011;20339;49.754;20.158;2022-11-20T10:11:48;38.20;;;26.30;;
34064;SDS011;20339;49.754;20.158;2022-11-20T10:14:30;39.20;;;26.20;;
34064;SDS011;20339;49.754;20.158;2022-11-20T10:17:13;40.80;;;27.40;;
34064;SDS011;20339;49.754;20.158;2022-11-20T10:19:54;59.30;;;41.30;;
34064;SDS011;20339;49.754;20.158;2022-11-20T10:22:39;49.90;;;33.60;;
34064;SDS011;20339;49.754;20.158;2022-11-20T10:25:22;42.70;;;27.90;;
34064;SDS011;20339;49.754;20.158;2022-11-20T10:28:12;39.50;;;27.20;;
34064;SDS011;20339;49.754;20.158;2022-11-20T10:30:55;40.70;;;27.00;;
34064;SDS011;20339;49.754;20.158;2022-11-20T10:33:34;39.10;;;26.80;;
34064;SDS011;20339;49.754;20.158;2022-11-20T10:36:12;37.80;;;24.70;;
34064;SDS011;20339;49.754;20.158;2022-11-20T10:38:47;37.20;;;24.90;;
34064;SDS011;20339;49.754;20.158;2022-11-20T10:41:24;43.70;;;28.90;;
34064;SDS011;20339;49.754;20.158;2022-11-20T10:44:01;50.90;;;33.30;;
34064;SDS011;20339;49.754;20.158;2022-11-20T10:46:39;50.90;;;33.40;;
34064;SDS011;20339;49.754;20.158;2022-11-20T10:49:14;55.40;;;35.70;;
34064;SDS011;20339;49.754;20.158;2022-11-20T10:51:56;53.00;;;34.90;;
34064;SDS011;20339;49.754;20.158;2022-11-20T10:54:41;51.30;;;34.60;;
34064;SDS011;20339;49.754;20.158;2022-11-20T10:57:23;49.40;;;35.60;;
34064;SDS011;20339;49.754;20.158;2022-11-20T11:00:07;50.80;;;33.80;;
34064;SDS011;20339;49.754;20.158;2022-11-20T11:02:43;50.40;;;33.00;;
34064;SDS011;20339;49.754;20.158;2022-11-20T11:05:21;48.00;;;32.10;;
34064;SDS011;20339;49.754;20.158;2022-11-20T11:07:57;52.90;;;33.30;;
34064;SDS011;20339;49.754;20.158;2022-11-20T11:10:32;44.20;;;30.60;;
34064;SDS011;20339;49.754;20.158;2022-11-20T11:13:23;47.50;;;31.60;;
34064;SDS011;20339;49.754;20.158;2022-11-20T11:15:57;45.00;;;31.80;;
34064;SDS011;20339;49.754;20.158;2022-11-20T11:18:30;49.40;;;31.60;;
34064;SDS011;20339;49.754;20.158;2022-11-20T11:21:04;49.30;;;33.60;;
34064;SDS011;20339;49.754;20.158;2022-11-20T11:23:40;49.10;;;34.00;;
34064;SDS011;20339;49.754;20.158;2022-11-20T11:26:20;53.70;;;37.60;;
34064;SDS011;20339;49.754;20.158;2022-11-20T11:28:56;53.00;;;37.10;;
34064;SDS011;20339;49.754;20.158;2022-11-20T11:31:30;62.30;;;43.20;;
34064;SDS011;20339;49.754;20.158;2022-11-20T11:34:06;53.40;;;36.00;;
34064;SDS011;20339;49.754;20.158;2022-11-20T11:36:49;49.10;;;33.20;;
34064;SDS011;20339;49.754;20.158;2022-11-20T11:39:26;58.20;;;38.50;;
34064;SDS011;20339;49.754;20.158;2022-11-20T11:42:01;67.30;;;44.50;;
34064;SDS011;20339;49.754;20.158;2022-11-20T11:44:35;54.60;;;36.90;;
34064;SDS011;20339;49.754;20.158;2022-11-20T11:47:32;44.20;;;32.10;;
34064;SDS011;20339;49.754;20.158;2022-11-20T11:50:16;43.20;;;29.80;;
34064;SDS011;20339;49.754;20.158;2022-11-20T11:52:56;41.90;;;28.40;;
34064;SDS011;20339;49.754;20.158;2022-11-20T11:55:35;26.00;;;18.30;;
34064;SDS011;20339;49.754;20.158;2022-11-20T11:58:14;44.20;;;28.50;;
34064;SDS011;20339;49.754;20.158;2022-11-20T12:01:06;42.50;;;29.60;;
34064;SDS011;20339;49.754;20.158;2022-11-20T12:03:52;40.60;;;29.20;;
34064;SDS011;20339;49.754;20.158;2022-11-20T12:06:36;49.70;;;33.20;;
34064;SDS011;20339;49.754;20.158;2022-11-20T12:09:14;52.80;;;33.30;;
34064;SDS011;20339;49.754;20.158;2022-11-20T12:11:49;42.40;;;30.00;;
34064;SDS011;20339;49.754;20.158;2022-11-20T12:14:31;47.70;;;33.40;;
34064;SDS011;20339;49.754;20.158;2022-11-20T12:17:09;46.90;;;31.40;;
34064;SDS011;20339;49.754;20.158;2022-11-20T12:19:46;49.80;;;32.50;;
34064;SDS011;20339;49.754;20.158;2022-11-20T12:22:26;46.00;;;30.50;;
34064;SDS011;20339;49.754;20.158;2022-11-20T12:25:07;48.90;;;33.00;;
34064;SDS011;20339;49.754;20.158;2022-11-20T12:30:52;46.40;;;31.30;;
34064;SDS011;20339;49.754;20.158;2022-11-20T12:36:37;45.60;;;30.20;;
34064;SDS011;20339;49.754;20.158;2022-11-20T12:39:20;53.20;;;35.20;;
34064;SDS011;20339;49.754;20.158;2022-11-20T12:42:23;51.70;;;34.90;;
34064;SDS011;20339;49.754;20.158;2022-11-20T12:51:53;51.10;;;34.90;;
34064;SDS011;20339;49.754;20.158;2022-11-20T12:54:53;53.10;;;36.00;;
34064;SDS011;20339;49.754;20.158;2022-11-20T12:57:39;56.60;;;39.10;;
34064;SDS011;20339;49.754;20.158;2022-11-20T13:00:18;51.80;;;35.80;;
34064;SDS011;20339;49.754;20.158;2022-11-20T13:03:09;52.00;;;35.60;;
34064;SDS011;20339;49.754;20.158;2022-11-20T13:06:00;53.30;;;36.30;;
34064;SDS011;20339;49.754;20.158;2022-11-20T13:08:41;50.40;;;34.70;;
34064;SDS011;20339;49.754;20.158;2022-11-20T13:11:18;53.00;;;36.50;;
34064;SDS011;20339;49.754;20.158;2022-11-20T13:14:03;52.30;;;35.20;;
34064;SDS011;20339;49.754;20.158;2022-11-20T13:16:50;51.10;;;34.50;;
34064;SDS011;20339;49.754;20.158;2022-11-20T13:19:27;54.20;;;35.40;;
34064;SDS011;20339;49.754;20.158;2022-11-20T13:22:01;48.20;;;34.40;;
34064;SDS011;20339;49.754;20.158;2022-11-20T13:24:33;51.30;;;35.10;;
34064;SDS011;20339;49.754;20.158;2022-11-20T13:27:05;48.70;;;34.10;;
34064;SDS011;20339;49.754;20.158;2022-11-20T13:30:11;48.20;;;33.30;;
34064;SDS011;20339;49.754;20.158;2022-11-20T13:32:49;50.10;;;34.20;;
34064;SDS011;20339;49.754;20.158;2022-11-20T13:35:28;55.20;;;36.90;;
34064;SDS011;20339;49.754;20.158;2022-11-20T13:38:04;46.90;;;34.00;;
34064;SDS011;20339;49.754;20.158;2022-11-20T13:40:49;52.60;;;36.10;;
34064;SDS011;20339;49.754;20.158;2022-11-20T13:43:26;53.10;;;36.60;;
34064;SDS011;20339;49.754;20.158;2022-11-20T13:46:07;53.00;;;35.70;;
34064;SDS011;20339;49.754;20.158;2022-11-20T13:48:41;54.20;;;36.80;;
34064;SDS011;20339;49.754;20.158;2022-11-20T13:51:20;54.50;;;36.00;;
34064;SDS011;20339;49.754;20.158;2022-11-20T13:54:10;54.30;;;37.50;;
34064;SDS011;20339;49.754;20.158;2022-11-20T13:56:54;55.30;;;37.40;;
34064;SDS011;20339;49.754;20.158;2022-11-20T13:59:38;58.60;;;40.20;;
34064;SDS011;20339;49.754;20.158;2022-11-20T14:02:19;58.40;;;38.60;;
34064;SDS011;20339;49.754;20.158;2022-11-20T14:04:55;58.00;;;38.10;;
34064;SDS011;20339;49.754;20.158;2022-11-20T14:07:34;63.00;;;40.80;;
34064;SDS011;20339;49.754;20.158;2022-11-20T14:10:22;60.40;;;41.20;;
34064;SDS011;20339;49.754;20.158;2022-11-20T14:12:56;63.90;;;42.60;;
34064;SDS011;20339;49.754;20.158;2022-11-20T14:15:29;63.40;;;41.60;;
34064;SDS011;20339;49.754;20.158;2022-11-20T14:18:13;67.90;;;43.00;;
34064;SDS011;20339;49.754;20.158;2022-11-20T14:20:53;69.50;;;43.30;;
34064;SDS011;20339;49.754;20.158;2022-11-20T14:23:26;62.50;;;41.80;;
34064;SDS011;20339;49.754;20.158;2022-11-20T14:25:58;65.90;;;42.20;;
34064;SDS011;20339;49.754;20.158;2022-11-20T14:28:30;61.50;;;41.30;;
34064;SDS011;20339;49.754;20.158;2022-11-20T14:31:02;70.70;;;45.70;;
34064;SDS011;20339;49.754;20.158;2022-11-20T14:33:47;73.50;;;45.50;;
34064;SDS011;20339;49.754;20.158;2022-11-20T14:36:19;84.20;;;50.20;;
34064;SDS011;20339;49.754;20.158;2022-11-20T14:38:53;94.80;;;63.10;;
34064;SDS011;20339;49.754;20.158;2022-11-20T14:41:25;68.20;;;45.60;;
34064;SDS011;20339;49.754;20.158;2022-11-20T14:43:57;65.60;;;43.60;;
34064;SDS011;20339;49.754;20.158;2022-11-20T14:46:31;64.60;;;43.10;;
34064;SDS011;20339;49.754;20.158;2022-11-20T14:49:04;66.90;;;44.10;;
34064;SDS011;20339;49.754;20.158;2022-11-20T14:51:39;61.20;;;40.40;;
34064;SDS011;20339;49.754;20.158;2022-11-20T14:54:12;62.30;;;41.20;;
34064;SDS011;20339;49.754;20.158;2022-11-20T14:56:54;69.20;;;44.60;;
34064;SDS011;20339;49.754;20.158;2022-11-20T14:59:28;64.90;;;41.50;;
34064;SDS011;20339;49.754;20.158;2022-11-20T15:02:06;76.00;;;50.50;;
34064;SDS011;20339;49.754;20.158;2022-11-20T15:04:45;68.40;;;46.20;;
34064;SDS011;20339;49.754;20.158;2022-11-20T15:07:29;79.20;;;50.10;;